Time;durP1;ratioP1;P1;durP2;ratioP2;P2;SDS_P1;SDS_P2;PMS_P1;PMS_P2;Temp;Humidity;BMP_temperature;BMP_pressure;BME280_temperature;BME280_humidity;BME280_pressure;Samples;Min_cycle;Max_cycle;Signal;HPM_P1;HPM_P2
2021/04/24 14:22:33;;;;;;;2.70;1.30;;;24.70;30.20;;;;;;4865871;29;20559;-45
2021/04/24 14:25:00;;;;;;;4.43;1.20;;;24.50;29.50;;;;;;4855845;29;20484;-47
2021/04/24 14:27:27;;;;;;;2.93;1.20;;;24.40;29.40;;;;;;4856994;29;20447;-50
2021/04/24 14:29:53;;;;;;;3.50;1.30;;;24.40;29.30;;;;;;4873722;29;20482;-51
2021/04/24 14:32:20;;;;;;;5.77;1.37;;;24.30;29.50;;;;;;4873621;29;20421;-46
2021/04/24 14:34:47;;;;;;;1.00;0.90;;;24.30;30.00;;;;;;4873108;29;20425;-46
2021/04/24 14:37:15;;;;;;;1.67;1.40;;;24.30;29.60;;;;;;4874076;29;20454;-46
2021/04/24 14:39:42;;;;;;;3.00;1.20;;;24.20;30.00;;;;;;4873970;29;20449;-46
2021/04/24 14:42:09;;;;;;;3.20;1.30;;;24.30;29.90;;;;;;4873692;29;20451;-48
2021/04/24 14:44:36;;;;;;;13.30;1.63;;;24.20;29.70;;;;;;4872912;29;20449;-47
2021/04/24 14:47:03;;;;;;;2.20;1.00;;;24.30;31.00;;;;;;4874134;29;20493;-49
2021/04/24 14:49:31;;;;;;;5.40;1.50;;;24.30;31.30;;;;;;4873397;29;20421;-48
2021/04/24 14:51:58;;;;;;;11.73;1.50;;;24.20;31.30;;;;;;4873697;29;20561;-51
2021/04/24 14:54:24;;;;;;;8.83;1.50;;;24.10;30.00;;;;;;4859638;29;20422;-46
2021/04/24 14:56:52;;;;;;;3.43;1.20;;;24.00;29.50;;;;;;4864784;29;20449;-49
2021/04/24 14:59:20;;;;;;;3.30;1.20;;;24.00;29.80;;;;;;4864857;29;20538;-49
2021/04/24 15:01:48;;;;;;;3.60;1.43;;;23.90;30.30;;;;;;4854640;29;20477;-49
2021/04/24 15:04:16;;;;;;;7.73;1.40;;;23.90;29.90;;;;;;4863387;29;20497;-48
2021/04/24 15:06:42;;;;;;;2.90;1.50;;;23.90;30.10;;;;;;4865190;29;20527;-48
2021/04/24 15:09:10;;;;;;;6.83;2.30;;;23.90;30.70;;;;;;4862460;29;20440;-50
2021/04/24 15:11:37;;;;;;;5.03;1.93;;;23.90;30.20;;;;;;4862688;29;20526;-48
2021/04/24 15:14:05;;;;;;;2.70;1.50;;;23.80;30.30;;;;;;4862013;29;20438;-47
2021/04/24 15:16:32;;;;;;;4.70;2.13;;;23.80;30.60;;;;;;4864075;29;20459;-48
2021/04/24 15:18:59;;;;;;;8.23;2.57;;;23.80;31.10;;;;;;4871435;29;20422;-48
2021/04/24 15:21:26;;;;;;;6.53;2.50;;;23.70;30.90;;;;;;4873237;29;20509;-48
2021/04/24 15:23:53;;;;;;;5.77;2.60;;;23.70;31.00;;;;;;4872950;29;20425;-51
2021/04/24 15:26:20;;;;;;;8.77;4.43;;;23.60;30.50;;;;;;4869352;29;20418;-51
2021/04/24 15:28:48;;;;;;;8.70;3.20;;;23.60;30.80;;;;;;4855392;29;20415;-49
2021/04/24 15:31:16;;;;;;;6.10;3.03;;;23.60;31.70;;;;;;4853950;29;20490;-48
2021/04/24 15:33:42;;;;;;;3.57;2.93;;;23.50;30.90;;;;;;4854158;29;20447;-45
2021/04/24 15:36:09;;;;;;;5.87;3.40;;;23.50;30.90;;;;;;4853305;29;20454;-51
2021/04/24 15:38:36;;;;;;;5.33;3.37;;;23.50;31.20;;;;;;4853674;29;20441;-48
2021/04/24 15:41:03;;;;;;;5.60;3.00;;;23.40;31.00;;;;;;4853642;29;20418;-47
2021/04/24 15:43:30;;;;;;;6.30;3.40;;;23.40;30.80;;;;;;4853905;29;20459;-47
2021/04/24 15:45:57;;;;;;;5.97;3.03;;;23.40;30.90;;;;;;4858670;29;20422;-46
2021/04/24 15:48:26;;;;;;;7.73;3.73;;;23.40;31.10;;;;;;4863844;29;20481;-44
2021/04/24 15:50:53;;;;;;;7.73;3.30;;;23.30;31.10;;;;;;4863283;29;20484;-45
2021/04/24 15:53:20;;;;;;;6.10;3.53;;;23.40;31.20;;;;;;4871230;29;20442;-47
2021/04/24 15:55:49;;;;;;;3.90;3.30;;;23.40;30.80;;;;;;4871574;29;20425;-44
2021/04/24 15:58:15;;;;;;;3.80;2.90;;;23.40;30.60;;;;;;4871748;29;20463;-46
2021/04/24 16:00:42;;;;;;;6.87;3.30;;;23.50;31.60;;;;;;4872219;29;20542;-50
2021/04/24 16:03:09;;;;;;;6.70;3.23;;;23.60;32.70;;;;;;4857405;29;20448;-47
2021/04/24 16:05:37;;;;;;;3.27;2.77;;;23.60;33.10;;;;;;4852531;29;20418;-46
2021/04/24 16:08:05;;;;;;;6.50;3.67;;;23.70;32.60;;;;;;4853544;29;20497;-45
2021/04/24 16:10:32;;;;;;;5.43;3.40;;;23.60;32.00;;;;;;4853528;29;20453;-46
2021/04/24 16:12:59;;;;;;;5.13;3.30;;;23.60;32.50;;;;;;4853685;29;20443;-48
2021/04/24 16:15:25;;;;;;;7.30;3.70;;;23.60;32.00;;;;;;4852576;29;20434;-49
2021/04/24 16:17:52;;;;;;;5.43;3.00;;;23.50;32.30;;;;;;4853292;29;20430;-48
2021/04/24 16:20:19;;;;;;;6.33;2.90;;;23.50;31.90;;;;;;4853235;29;20440;-46
2021/04/24 16:22:47;;;;;;;7.13;2.73;;;23.60;31.10;;;;;;4853239;29;20414;-49
2021/04/24 16:25:15;;;;;;;3.17;2.83;;;23.60;30.90;;;;;;4852466;29;20437;-45
2021/04/24 16:27:42;;;;;;;5.33;3.07;;;23.50;31.70;;;;;;4853536;29;20453;-50
2021/04/24 16:30:09;;;;;;;4.90;2.90;;;23.40;32.40;;;;;;4852735;29;20496;-49
2021/04/24 16:32:37;;;;;;;6.47;2.60;;;23.40;32.00;;;;;;4852536;29;20418;-45
2021/04/24 16:35:05;;;;;;;7.80;3.53;;;23.30;32.00;;;;;;4851874;29;20460;-46
2021/04/24 16:37:32;;;;;;;4.10;2.60;;;23.30;32.00;;;;;;4852721;29;20445;-46
2021/04/24 16:40:02;;;;;;;5.60;2.77;;;23.30;31.30;;;;;;4852765;29;20530;-45
2021/04/24 16:42:29;;;;;;;4.50;3.10;;;23.40;31.70;;;;;;4854832;29;20435;-46
2021/04/24 16:44:55;;;;;;;3.67;2.87;;;23.30;31.30;;;;;;4870449;29;20524;-48
2021/04/24 16:47:23;;;;;;;2.70;2.50;;;23.30;31.60;;;;;;4870811;29;20414;-44
2021/04/24 16:49:50;;;;;;;5.93;2.53;;;23.40;32.00;;;;;;4871167;29;20516;-47
2021/04/24 16:52:16;;;;;;;6.10;2.87;;;23.30;32.30;;;;;;4869988;29;20512;-48
2021/04/24 16:54:44;;;;;;;5.27;2.33;;;23.30;32.50;;;;;;4869320;29;20508;-46
2021/04/24 16:57:12;;;;;;;4.23;2.40;;;23.30;32.50;;;;;;4871025;29;20460;-48
2021/04/24 16:59:39;;;;;;;3.63;2.40;;;23.30;32.70;;;;;;4870998;29;20466;-45
2021/04/24 17:02:06;;;;;;;4.50;2.37;;;23.30;32.60;;;;;;4870762;29;20417;-49
2021/04/24 17:04:33;;;;;;;7.07;2.93;;;23.20;33.40;;;;;;4870185;29;20437;-50
2021/04/24 17:06:59;;;;;;;3.43;2.30;;;23.10;33.30;;;;;;4871003;29;20504;-47
2021/04/24 17:09:26;;;;;;;7.43;2.70;;;23.10;33.40;;;;;;4870826;29;20442;-49
2021/04/24 17:11:54;;;;;;;5.13;2.33;;;23.10;33.20;;;;;;4870656;29;20459;-44
2021/04/24 17:14:21;;;;;;;8.57;2.30;;;23.10;33.20;;;;;;4870198;29;20446;-46
2021/04/24 17:16:48;;;;;;;5.00;2.47;;;23.10;33.10;;;;;;4870991;29;20510;-46
2021/04/24 17:19:15;;;;;;;7.43;2.90;;;23.00;33.30;;;;;;4874538;29;20568;-47
2021/04/24 17:21:42;;;;;;;4.17;2.17;;;23.10;33.10;;;;;;4874671;29;20525;-48
2021/04/24 17:24:09;;;;;;;10.60;2.60;;;23.00;33.10;;;;;;4874006;29;20533;-47
2021/04/24 17:26:36;;;;;;;6.90;2.53;;;23.00;33.10;;;;;;4874402;29;20550;-48
2021/04/24 17:29:03;;;;;;;5.40;2.03;;;23.00;33.10;;;;;;4874953;29;20478;-49
2021/04/24 17:31:30;;;;;;;2.90;2.20;;;23.00;32.70;;;;;;4875125;29;20482;-45
2021/04/24 17:33:58;;;;;;;13.50;2.33;;;22.90;33.20;;;;;;4874659;29;20418;-48
2021/04/24 17:36:25;;;;;;;5.57;2.30;;;22.90;33.50;;;;;;4874168;29;20450;-45
2021/04/24 17:38:52;;;;;;;6.90;2.70;;;22.80;33.60;;;;;;4874565;29;20482;-46
2021/04/24 17:41:20;;;;;;;5.97;2.87;;;22.80;33.80;;;;;;4874223;29;20446;-44
2021/04/24 17:43:47;;;;;;;5.23;2.67;;;22.70;33.60;;;;;;4874369;29;20494;-46
2021/04/24 17:46:15;;;;;;;3.10;2.50;;;22.70;33.70;;;;;;4874053;29;20493;-46
2021/04/24 17:48:43;;;;;;;4.93;2.40;;;22.70;34.00;;;;;;4874533;29;20443;-46
2021/04/24 17:51:10;;;;;;;2.70;2.43;;;22.60;33.90;;;;;;4873952;29;20490;-48
2021/04/24 17:53:37;;;;;;;3.47;3.17;;;22.60;34.00;;;;;;4874157;29;20545;-48
2021/04/24 17:56:04;;;;;;;4.90;2.83;;;22.60;34.10;;;;;;4873892;29;20534;-46
2021/04/24 17:58:31;;;;;;;5.23;2.87;;;22.50;33.90;;;;;;4874139;29;20446;-50
2021/04/24 18:01:02;;;;;;;3.37;2.97;;;22.50;33.80;;;;;;4874502;29;20417;-47
2021/04/24 18:03:29;;;;;;;4.30;2.90;;;22.40;33.80;;;;;;4874038;29;20466;-47
2021/04/24 18:05:57;;;;;;;6.93;3.53;;;22.40;33.90;;;;;;4873578;29;20421;-46
2021/04/24 18:08:24;;;;;;;3.80;3.40;;;22.40;33.70;;;;;;4874509;29;20446;-48
2021/04/24 18:10:51;;;;;;;3.70;3.03;;;22.40;33.70;;;;;;4871257;29;20558;-50
2021/04/24 18:13:18;;;;;;;4.97;3.30;;;22.30;33.80;;;;;;4873520;29;20456;-47
2021/04/24 18:15:44;;;;;;;5.10;2.90;;;22.30;33.90;;;;;;4870190;29;20540;-45
2021/04/24 18:18:11;;;;;;;8.30;3.10;;;22.30;33.90;;;;;;4873087;29;20529;-44
2021/04/24 18:20:39;;;;;;;5.83;2.87;;;22.20;34.10;;;;;;4873447;29;20522;-46
2021/04/24 18:23:07;;;;;;;3.73;3.13;;;22.20;34.20;;;;;;4866288;29;20464;-48
2021/04/24 18:25:34;;;;;;;4.60;2.67;;;22.20;34.10;;;;;;4854236;29;20471;-47
2021/04/24 18:28:01;;;;;;;4.13;2.60;;;22.20;34.20;;;;;;4863221;29;20443;-50
2021/04/24 18:30:28;;;;;;;4.57;3.00;;;22.10;34.10;;;;;;4861108;29;20494;-49
2021/04/24 18:32:55;;;;;;;5.20;2.87;;;22.10;34.30;;;;;;4855109;29;20458;-50
2021/04/24 18:35:22;;;;;;;6.13;3.10;;;22.00;34.30;;;;;;4854426;29;20510;-48
2021/04/24 18:37:49;;;;;;;5.37;2.60;;;22.00;34.20;;;;;;4854657;29;20493;-49
2021/04/24 18:40:17;;;;;;;5.17;2.80;;;22.00;34.40;;;;;;4854117;29;20562;-49
2021/04/24 18:42:44;;;;;;;6.60;3.50;;;21.90;34.40;;;;;;4855059;29;20437;-47
2021/04/24 18:45:15;;;;;;;4.50;2.63;;;21.90;34.50;;;;;;4854220;29;20524;-47
2021/04/24 18:47:42;;;;;;;9.17;2.80;;;21.90;35.20;;;;;;4854017;29;20477;-60
2021/04/24 18:50:13;;;;;;;7.17;3.00;;;21.90;34.80;;;;;;4854243;29;20539;-60
2021/04/24 18:52:40;;;;;;;5.10;3.00;;;21.90;34.20;;;;;;4854469;29;20461;-60
2021/04/24 18:55:08;;;;;;;5.27;3.13;;;21.70;34.30;;;;;;4854122;29;20511;-60
2021/04/24 18:57:38;;;;;;;5.03;2.40;;;21.40;34.10;;;;;;4854731;29;20451;-59
2021/04/24 19:00:06;;;;;;;7.47;2.87;;;21.20;34.30;;;;;;4866695;29;20554;-60
2021/04/24 19:02:33;;;;;;;4.67;2.87;;;21.00;34.30;;;;;;4873255;29;20497;-60
2021/04/24 19:05:00;;;;;;;3.87;2.90;;;20.90;34.20;;;;;;4872512;29;20447;-60
2021/04/24 19:07:27;;;;;;;5.90;3.27;;;20.80;34.90;;;;;;4872960;29;20546;-60
2021/04/24 19:09:56;;;;;;;3.20;2.90;;;20.70;34.30;;;;;;4872994;29;20466;-60
2021/04/24 19:12:23;;;;;;;5.30;3.10;;;20.50;34.20;;;;;;4871221;29;20490;-60
2021/04/24 19:14:51;;;;;;;5.47;3.40;;;20.60;33.90;;;;;;4861784;29;20559;-60
2021/04/24 19:17:18;;;;;;;4.27;3.23;;;20.40;33.80;;;;;;4870391;29;20462;-60
2021/04/24 19:19:45;;;;;;;4.43;3.17;;;20.40;33.70;;;;;;4872200;29;20443;-60
2021/04/24 19:22:12;;;;;;;5.00;4.10;;;20.40;33.60;;;;;;4872076;29;20535;-60
2021/04/24 19:24:39;;;;;;;5.33;3.30;;;20.20;33.30;;;;;;4871887;29;20562;-61
2021/04/24 19:27:06;;;;;;;5.00;3.57;;;20.20;33.40;;;;;;4871977;29;20443;-60
2021/04/24 19:29:33;;;;;;;3.87;3.07;;;20.10;33.40;;;;;;4872187;29;20508;-60
2021/04/24 19:32:01;;;;;;;4.23;3.57;;;20.00;33.30;;;;;;4871692;29;20478;-60
2021/04/24 19:34:29;;;;;;;5.17;3.80;;;19.90;33.00;;;;;;4871977;29;20470;-60
2021/04/24 19:36:59;;;;;;;6.77;3.73;;;19.90;33.20;;;;;;4871789;29;20535;-60
2021/04/24 19:39:26;;;;;;;5.97;3.90;;;19.80;33.00;;;;;;4871672;29;20469;-61
2021/04/24 19:41:53;;;;;;;6.87;3.77;;;19.80;33.00;;;;;;4871587;29;20526;-61
2021/04/24 19:44:19;;;;;;;5.40;3.70;;;19.70;32.80;;;;;;4871028;29;20455;-61
2021/04/24 19:46:46;;;;;;;6.87;3.90;;;19.70;32.70;;;;;;4871817;29;20478;-62
2021/04/24 19:49:14;;;;;;;4.63;3.43;;;19.50;32.60;;;;;;4871900;29;20483;-61
2021/04/24 19:51:41;;;;;;;10.50;3.77;;;19.50;32.60;;;;;;4871690;29;20482;-61
2021/04/24 19:54:08;;;;;;;3.90;3.30;;;19.50;32.50;;;;;;4871160;29;20518;-61
2021/04/24 19:56:35;;;;;;;6.17;3.30;;;19.50;32.40;;;;;;4871330;29;20450;-61
2021/04/24 19:59:03;;;;;;;5.30;3.10;;;19.40;32.30;;;;;;4871252;29;20474;-60
2021/04/24 20:01:30;;;;;;;5.10;3.27;;;19.30;32.20;;;;;;4871379;29;20503;-62
2021/04/24 20:03:56;;;;;;;4.53;3.13;;;19.30;32.20;;;;;;4871985;29;20478;-61
2021/04/24 20:06:28;;;;;;;4.00;3.20;;;19.30;32.20;;;;;;4871355;29;20453;-61
2021/04/24 20:08:56;;;;;;;4.33;3.37;;;19.20;32.20;;;;;;4871372;29;20548;-61
2021/04/24 20:11:23;;;;;;;4.00;3.27;;;19.10;32.00;;;;;;4872018;29;20529;-61
2021/04/24 20:13:50;;;;;;;4.57;3.13;;;19.10;32.00;;;;;;4870997;29;20466;-62
2021/04/24 20:16:18;;;;;;;3.47;2.93;;;19.10;32.00;;;;;;4870958;29;20462;-60
2021/04/24 20:18:45;;;;;;;3.23;2.93;;;19.00;31.90;;;;;;4871035;29;20438;-63
2021/04/24 20:21:11;;;;;;;4.93;3.23;;;19.00;32.10;;;;;;4871633;29;20537;-63
2021/04/24 20:23:39;;;;;;;4.23;3.03;;;19.00;31.90;;;;;;4871669;29;20574;-60
2021/04/24 20:26:06;;;;;;;4.17;3.50;;;19.00;31.80;;;;;;4866397;29;20565;-63
2021/04/24 20:28:33;;;;;;;3.63;3.00;;;18.90;31.70;;;;;;4871160;29;20577;-62
2021/04/24 20:31:00;;;;;;;5.47;3.37;;;19.00;31.60;;;;;;4871052;29;20486;-61
2021/04/24 20:33:27;;;;;;;4.10;3.37;;;18.90;31.70;;;;;;4870978;29;20439;-62
2021/04/24 20:35:54;;;;;;;2.77;2.57;;;18.90;31.70;;;;;;4870490;29;20521;-64
2021/04/24 20:38:20;;;;;;;5.10;3.30;;;18.80;31.60;;;;;;4871343;29;20506;-63
2021/04/24 20:40:48;;;;;;;5.50;3.37;;;18.80;31.60;;;;;;4871040;29;20461;-64
2021/04/24 20:43:15;;;;;;;3.70;3.30;;;18.70;31.50;;;;;;4869152;29;20447;-63
2021/04/24 20:45:42;;;;;;;4.43;3.30;;;18.70;31.50;;;;;;4867608;29;20450;-63
2021/04/24 20:48:09;;;;;;;4.97;4.00;;;18.70;31.50;;;;;;4870647;29;20446;-63
2021/04/24 20:50:37;;;;;;;6.43;3.47;;;18.60;31.60;;;;;;4871149;29;20463;-64
2021/04/24 20:53:04;;;;;;;4.30;3.13;;;18.60;31.40;;;;;;4870917;29;20522;-63
2021/04/24 20:55:31;;;;;;;3.60;2.97;;;18.50;31.30;;;;;;4870456;29;20455;-63
2021/04/24 20:57:58;;;;;;;4.43;3.03;;;18.50;31.40;;;;;;4870903;29;20475;-63
2021/04/24 21:00:25;;;;;;;5.53;3.30;;;18.50;31.60;;;;;;4870986;29;20507;-63
2021/04/24 21:02:52;;;;;;;5.60;3.10;;;18.40;31.60;;;;;;4870977;29;20478;-63
2021/04/24 21:05:19;;;;;;;3.50;2.93;;;18.40;31.60;;;;;;4871029;29;20474;-64
2021/04/24 21:07:46;;;;;;;4.10;3.23;;;18.40;31.60;;;;;;4870908;29;20451;-63
2021/04/24 21:10:13;;;;;;;4.17;3.43;;;18.40;31.50;;;;;;4870888;29;20446;-63
2021/04/24 21:12:41;;;;;;;6.30;2.93;;;18.20;31.50;;;;;;4871144;29;20510;-63
2021/04/24 21:15:09;;;;;;;3.60;3.30;;;18.10;31.60;;;;;;4870607;29;20489;-63
2021/04/24 21:17:40;;;;;;;3.17;2.90;;;18.20;32.00;;;;;;4870852;29;20454;-63
2021/04/24 21:20:09;;;;;;;7.40;3.40;;;18.30;32.20;;;;;;4866752;29;20503;-62
2021/04/24 21:22:39;;;;;;;5.00;3.30;;;18.30;32.40;;;;;;4871230;29;20435;-63
2021/04/24 21:25:07;;;;;;;5.30;3.87;;;18.30;32.60;;;;;;4870652;29;20549;-63
2021/04/24 21:27:34;;;;;;;3.83;3.30;;;18.30;32.70;;;;;;4866177;29;20494;-63
2021/04/24 21:30:01;;;;;;;4.80;3.20;;;18.20;33.00;;;;;;4870764;29;20447;-63
2021/04/24 21:32:28;;;;;;;4.63;3.60;;;18.20;33.10;;;;;;4870597;29;20542;-64
2021/04/24 21:34:56;;;;;;;5.07;3.77;;;18.20;33.40;;;;;;4871073;29;20554;-63
2021/04/24 21:37:22;;;;;;;5.73;3.70;;;18.10;33.60;;;;;;4870989;29;20442;-63
2021/04/24 21:39:49;;;;;;;9.73;3.53;;;18.20;33.90;;;;;;4871533;29;20450;-63
2021/04/24 21:42:16;;;;;;;3.90;3.10;;;18.10;34.00;;;;;;4870861;29;20474;-63
2021/04/24 21:44:43;;;;;;;7.80;3.57;;;18.10;34.20;;;;;;4870366;29;20458;-63
2021/04/24 21:47:10;;;;;;;3.93;3.53;;;18.10;34.40;;;;;;4870653;29;20458;-64
2021/04/24 21:49:38;;;;;;;7.23;3.10;;;18.10;34.50;;;;;;4856772;29;20470;-63
2021/04/24 21:52:06;;;;;;;4.40;3.27;;;18.10;34.70;;;;;;4867708;29;20486;-63
2021/04/24 21:54:33;;;;;;;4.30;3.40;;;18.10;34.80;;;;;;4869943;29;20517;-63
2021/04/24 21:57:01;;;;;;;5.17;3.97;;;18.10;34.90;;;;;;4870652;29;20557;-63
2021/04/24 21:59:27;;;;;;;9.83;3.50;;;18.00;35.00;;;;;;4870415;29;20521;-63
2021/04/24 22:01:54;;;;;;;6.60;3.53;;;18.10;35.10;;;;;;4870499;29;20491;-63
2021/04/24 22:04:21;;;;;;;6.20;4.10;;;18.00;35.20;;;;;;4871277;29;20474;-63
2021/04/24 22:06:49;;;;;;;6.00;3.60;;;18.00;35.30;;;;;;4873983;29;20450;-64
2021/04/24 22:09:16;;;;;;;5.23;3.27;;;18.10;35.50;;;;;;4873462;29;20510;-64
2021/04/24 22:11:43;;;;;;;3.60;3.20;;;18.00;35.50;;;;;;4873408;29;20510;-63
2021/04/24 22:14:10;;;;;;;7.10;3.97;;;18.00;35.60;;;;;;4873273;29;20458;-64
2021/04/24 22:16:36;;;;;;;5.20;3.90;;;17.90;35.80;;;;;;4873552;29;20465;-63
2021/04/24 22:19:03;;;;;;;4.50;3.50;;;17.90;35.70;;;;;;4873525;29;20525;-64
2021/04/24 22:21:30;;;;;;;5.70;3.63;;;17.90;36.00;;;;;;4873553;29;20455;-64
2021/04/24 22:23:58;;;;;;;6.37;3.50;;;17.90;36.10;;;;;;4873233;29;20521;-64
2021/04/24 22:26:26;;;;;;;4.67;3.57;;;17.90;36.20;;;;;;4873538;29;20482;-64
2021/04/24 22:28:53;;;;;;;4.90;3.40;;;17.80;36.20;;;;;;4873616;29;20485;-64
2021/04/24 22:31:19;;;;;;;4.13;3.40;;;17.80;36.30;;;;;;4873408;29;20554;-63
2021/04/24 22:33:46;;;;;;;8.43;4.10;;;17.80;36.40;;;;;;4873605;29;20443;-64
2021/04/24 22:36:14;;;;;;;4.87;3.23;;;17.80;36.40;;;;;;4873128;29;20446;-63
2021/04/24 22:38:41;;;;;;;5.07;3.40;;;17.80;36.50;;;;;;4873916;29;20455;-64
2021/04/24 22:41:08;;;;;;;4.50;3.70;;;17.70;36.50;;;;;;4873316;29;20471;-63
2021/04/24 22:43:35;;;;;;;4.83;2.90;;;17.70;36.70;;;;;;4873640;29;20453;-64
2021/04/24 22:46:02;;;;;;;5.27;3.90;;;17.70;36.80;;;;;;4872865;29;20463;-64
2021/04/24 22:48:29;;;;;;;4.70;3.40;;;17.70;36.90;;;;;;4873275;29;20474;-64
2021/04/24 22:50:59;;;;;;;3.83;3.10;;;17.60;36.90;;;;;;4872865;29;20466;-64
2021/04/24 22:53:26;;;;;;;3.70;3.00;;;17.70;36.90;;;;;;4873068;29;20538;-64
2021/04/24 22:55:53;;;;;;;9.30;3.37;;;17.60;37.00;;;;;;4873026;29;20557;-64
2021/04/24 22:58:20;;;;;;;3.90;3.07;;;17.60;37.10;;;;;;4872704;29;20538;-64
2021/04/24 23:00:47;;;;;;;4.80;3.40;;;17.60;37.10;;;;;;4873183;29;20493;-63
2021/04/24 23:03:14;;;;;;;6.23;3.53;;;17.60;37.30;;;;;;4872696;29;20470;-64
2021/04/24 23:05:41;;;;;;;5.07;3.23;;;17.60;37.20;;;;;;4872731;29;20447;-64
2021/04/24 23:08:08;;;;;;;5.50;3.60;;;17.50;37.30;;;;;;4872573;29;20510;-64
2021/04/24 23:10:35;;;;;;;9.70;3.07;;;17.40;37.40;;;;;;4872335;29;20510;-64
2021/04/24 23:13:02;;;;;;;5.90;3.57;;;17.40;37.60;;;;;;4872202;29;20569;-64
2021/04/24 23:15:29;;;;;;;3.57;3.27;;;17.40;37.60;;;;;;4871591;29;20485;-63
2021/04/24 23:17:56;;;;;;;4.40;3.60;;;17.50;37.60;;;;;;4872584;29;20530;-64
2021/04/24 23:20:23;;;;;;;3.80;3.03;;;17.40;37.70;;;;;;4872282;29;20527;-64
2021/04/24 23:22:50;;;;;;;3.20;2.90;;;17.40;37.90;;;;;;4872349;29;20461;-63
2021/04/24 23:25:17;;;;;;;4.47;3.23;;;17.40;37.80;;;;;;4872296;29;20534;-64
2021/04/24 23:27:44;;;;;;;5.30;3.00;;;17.40;37.80;;;;;;4872468;29;20542;-64
2021/04/24 23:30:12;;;;;;;4.27;3.30;;;17.30;38.00;;;;;;4872811;29;20459;-64
2021/04/24 23:32:40;;;;;;;5.20;3.50;;;17.30;38.00;;;;;;4871963;29;20482;-64
2021/04/24 23:35:08;;;;;;;4.57;3.57;;;17.30;37.90;;;;;;4872246;29;20450;-63
2021/04/24 23:37:35;;;;;;;6.30;3.60;;;17.30;38.10;;;;;;4871929;29;20461;-63
2021/04/24 23:40:03;;;;;;;3.60;3.10;;;17.30;38.20;;;;;;4872490;29;20510;-63
2021/04/24 23:42:30;;;;;;;5.10;3.63;;;17.30;38.20;;;;;;4871876;29;20506;-64
2021/04/24 23:44:57;;;;;;;4.57;3.10;;;17.20;38.30;;;;;;4871873;29;20458;-64
2021/04/24 23:47:24;;;;;;;4.73;3.37;;;17.20;38.30;;;;;;4871993;29;20529;-63
2021/04/24 23:49:52;;;;;;;5.37;3.70;;;17.20;38.50;;;;;;4872291;29;20485;-63
2021/04/24 23:52:19;;;;;;;3.07;2.77;;;17.20;38.50;;;;;;4871918;29;20577;-63
2021/04/24 23:54:45;;;;;;;3.87;3.50;;;17.20;38.50;;;;;;4872074;29;20491;-63
2021/04/24 23:57:12;;;;;;;3.20;2.90;;;17.20;38.60;;;;;;4871823;29;20554;-64
2021/04/24 23:59:40;;;;;;;3.27;2.97;;;17.20;38.70;;;;;;4871826;29;20545;-63
